Time,TemperatureF,DewpointF,PressureIn,WindDirection,WindDirectionDegrees,WindSpeedMPH,WindSpeedGustMPH,Humidity,HourlyPrecipIn,Conditions,Clouds,dailyrainin,SoftwareType,DateUTC
2013-09-23 04:42:00,66.7,63.0,29.82,North,0,0.0,0.0,88,0.00,,,0.00,WUHU21623XXSP,2013-09-23 09:42:00,
2013-09-23 04:48:00,66.7,63.0,29.82,North,0,0.0,0.0,88,0.00,,,0.00,WUHU21623XXSP,2013-09-23 09:48:00,
2013-09-23 04:53:00,66.7,63.0,29.82,North,0,0.0,0.0,88,0.00,,,0.00,WUHU21623XXSP,2013-09-23 09:53:00,
2013-09-23 04:58:00,66.7,63.0,29.82,North,0,0.0,0.0,88,0.00,,,0.00,WUHU21623XXSP,2013-09-23 09:58:00,
2013-09-23 05:03:00,66.7,63.0,29.82,North,0,0.0,0.0,88,0.00,,,0.00,WUHU21623XXSP,2013-09-23 10:03:00,
2013-09-23 05:40:00,66.9,63.5,29.83,North,0,0.0,0.0,89,0.00,,,0.00,WUHU21623XXSP,2013-09-23 10:40:00,
2013-09-23 05:45:00,67.1,64.0,29.83,North,0,0.0,0.0,90,0.00,,,0.00,WUHU21623XXSP,2013-09-23 10:45:00,
2013-09-23 05:50:00,67.1,64.0,29.83,North,0,0.0,0.0,90,0.00,,,0.00,WUHU21623XXSP,2013-09-23 10:50:00,
2013-09-23 05:55:00,67.3,64.2,29.82,North,0,0.0,0.0,90,0.00,,,0.00,WUHU21623XXSP,2013-09-23 10:55:00,
2013-09-23 06:00:00,67.3,64.2,29.82,North,0,0.0,0.0,90,0.00,,,0.00,WUHU21623XXSP,2013-09-23 11:00:00,
2013-09-23 06:05:00,67.6,64.3,29.83,North,0,0.0,0.0,89,0.00,,,0.00,WUHU21623XXSP,2013-09-23 11:05:00,
2013-09-23 06:10:00,67.6,64.3,29.83,North,0,0.0,0.0,89,0.00,,,0.00,WUHU21623XXSP,2013-09-23 11:10:00,
2013-09-23 06:15:00,67.6,64.3,29.84,North,0,0.0,0.0,89,0.00,,,0.00,WUHU21623XXSP,2013-09-23 11:15:00,
2013-09-23 06:20:00,67.6,64.3,29.84,North,0,0.0,0.0,89,0.00,,,0.00,WUHU21623XXSP,2013-09-23 11:20:00,
2013-09-23 06:25:00,67.6,64.3,29.84,North,0,0.0,0.0,89,0.00,,,0.00,WUHU21623XXSP,2013-09-23 11:25:00,
2013-09-23 06:30:00,67.6,64.3,29.84,North,0,0.0,0.0,89,0.00,,,0.00,WUHU21623XXSP,2013-09-23 11:30:00,
2013-09-23 06:35:00,67.6,64.3,29.84,North,0,0.0,0.0,89,0.00,,,0.00,WUHU21623XXSP,2013-09-23 11:35:00,
2013-09-23 06:40:00,67.6,64.3,29.84,North,0,0.0,0.0,89,0.00,,,0.00,WUHU21623XXSP,2013-09-23 11:40:00,
2013-09-23 06:45:00,67.6,64.3,29.84,North,0,0.0,0.0,89,0.00,,,0.00,WUHU21623XXSP,2013-09-23 11:45:00,
2013-09-23 10:22:00,75.6,72.1,29.87,North,0,0.0,0.0,89,0.00,,,0.00,WUHU21623XXSP,2013-09-23 15:22:00,
2013-09-23 10:27:00,75.9,72.5,29.87,North,0,0.0,0.0,89,0.00,,,0.00,WUHU21623XXSP,2013-09-23 15:27:00,
2013-09-23 10:32:00,75.9,72.2,29.87,North,0,0.0,0.0,88,0.00,,,0.00,WUHU21623XXSP,2013-09-23 15:32:00,
2013-09-23 10:37:00,76.6,72.2,29.87,North,0,0.0,0.0,88,0.00,,,0.00,WUHU21623XXSP,2013-09-23 15:37:00,
2013-09-23 10:42:00,76.6,72.9,29.87,North,0,0.0,0.0,88,0.00,,,0.00,WUHU21623XXSP,2013-09-23 15:42:00,
2013-09-23 10:47:00,76.6,72.9,29.87,North,0,0.0,0.0,88,0.00,,,0.00,WUHU21623XXSP,2013-09-23 15:47:00,
2013-09-23 10:52:00,76.6,72.9,29.87,North,0,0.0,0.0,88,0.00,,,0.00,WUHU21623XXSP,2013-09-23 15:52:00,
2013-09-23 10:57:00,78.1,73.8,29.87,North,0,0.0,0.0,87,0.00,,,0.00,WUHU21623XXSP,2013-09-23 15:57:00,
2013-09-23 11:02:00,78.4,73.8,29.87,North,0,0.0,0.0,86,0.00,,,0.00,WUHU21623XXSP,2013-09-23 16:02:00,
2013-09-23 11:07:00,78.6,73.9,29.87,North,0,0.0,0.0,86,0.00,,,0.00,WUHU21623XXSP,2013-09-23 16:07:00,
2013-09-23 11:12:00,78.6,74.1,29.86,North,0,0.0,0.0,85,0.00,,,0.00,WUHU21623XXSP,2013-09-23 16:12:00,
2013-09-23 11:17:00,79.5,74.3,29.87,North,0,0.0,0.0,84,0.00,,,0.00,WUHU21623XXSP,2013-09-23 16:17:00,
2013-09-23 11:22:00,79.7,74.3,29.86,North,0,0.0,0.0,84,0.00,,,0.00,WUHU21623XXSP,2013-09-23 16:22:00,
2013-09-23 11:27:00,79.7,74.4,29.86,North,0,0.0,0.0,84,0.00,,,0.00,WUHU21623XXSP,2013-09-23 16:27:00,
2013-09-23 11:32:00,80.4,74.9,29.86,North,0,0.0,0.0,84,0.00,,,0.00,WUHU21623XXSP,2013-09-23 16:32:00,
2013-09-23 11:37:00,80.4,75.1,29.86,North,0,0.0,0.0,84,0.00,,,0.00,WUHU21623XXSP,2013-09-23 16:37:00,
2013-09-23 11:42:00,81.1,75.2,29.86,North,0,0.0,0.0,82,0.00,,,0.00,WUHU21623XXSP,2013-09-23 16:42:00,
2013-09-23 11:47:00,81.3,75.3,29.86,North,0,0.0,0.0,82,0.00,,,0.00,WUHU21623XXSP,2013-09-23 16:47:00,
2013-09-23 11:52:00,81.3,75.3,29.86,North,0,0.0,0.0,82,0.00,,,0.00,WUHU21623XXSP,2013-09-23 16:52:00,
2013-09-23 11:57:00,81.3,75.3,29.86,North,0,0.0,0.0,82,0.00,,,0.00,WUHU21623XXSP,2013-09-23 16:57:00,
2013-09-23 12:02:00,82.6,76.2,29.86,North,0,0.0,0.0,80,0.00,,,0.00,WUHU21623XXSP,2013-09-23 17:02:00,
2013-09-23 12:07:00,82.8,76.1,29.86,North,0,0.0,0.0,80,0.00,,,0.00,WUHU21623XXSP,2013-09-23 17:07:00,
2013-09-23 12:12:00,83.1,75.8,29.86,North,0,0.0,0.0,78,0.00,,,0.00,WUHU21623XXSP,2013-09-23 17:12:00,
2013-09-23 12:17:00,83.3,75.7,29.86,North,0,0.0,0.0,78,0.00,,,0.00,WUHU21623XXSP,2013-09-23 17:17:00,
2013-09-23 12:22:00,83.8,76.3,29.86,North,0,0.0,0.0,79,0.00,,,0.00,WUHU21623XXSP,2013-09-23 17:22:00,
2013-09-23 12:27:00,84.4,76.4,29.86,North,0,0.0,0.0,77,0.00,,,0.00,WUHU21623XXSP,2013-09-23 17:27:00,
2013-09-23 12:32:00,84.9,76.7,29.86,North,0,0.0,0.0,77,0.00,,,0.00,WUHU21623XXSP,2013-09-23 17:32:00,
2013-09-23 12:37:00,85.1,77.1,29.86,North,0,0.0,0.0,77,0.00,,,0.00,WUHU21623XXSP,2013-09-23 17:37:00,
2013-09-23 12:42:00,85.6,77.6,29.85,North,0,0.0,0.0,77,0.00,,,0.00,WUHU21623XXSP,2013-09-23 17:42:00,
2013-09-23 12:47:00,85.6,77.2,29.85,North,0,0.0,0.0,76,0.00,,,0.00,WUHU21623XXSP,2013-09-23 17:47:00,
2013-09-23 12:53:00,85.8,77.2,29.85,North,0,0.0,0.0,75,0.00,,,0.00,WUHU21623XXSP,2013-09-23 17:53:00,
2013-09-23 12:58:00,85.8,76.6,29.85,North,0,0.0,0.0,74,0.00,,,0.00,WUHU21623XXSP,2013-09-23 17:58:00,
2013-09-23 13:03:00,86.2,76.9,29.85,North,0,0.0,0.0,74,0.00,,,0.00,WUHU21623XXSP,2013-09-23 18:03:00,
2013-09-23 13:08:00,86.4,77.5,29.85,North,0,0.0,0.0,75,0.00,,,0.00,WUHU21623XXSP,2013-09-23 18:08:00,
2013-09-23 13:13:00,87.1,77.4,29.85,North,0,0.0,0.0,73,0.00,,,0.00,WUHU21623XXSP,2013-09-23 18:13:00,
2013-09-23 13:18:00,87.6,77.5,29.85,North,0,0.0,0.0,72,0.00,,,0.00,WUHU21623XXSP,2013-09-23 18:18:00,
2013-09-23 13:23:00,88.0,77.8,29.85,North,0,0.0,0.0,72,0.00,,,0.00,WUHU21623XXSP,2013-09-23 18:23:00,
2013-09-23 13:28:00,88.2,78.0,29.84,North,0,0.0,0.0,72,0.00,,,0.00,WUHU21623XXSP,2013-09-23 18:28:00,
2013-09-23 13:33:00,88.2,77.6,29.84,North,0,0.0,0.0,71,0.00,,,0.00,WUHU21623XXSP,2013-09-23 18:33:00,
2013-09-23 13:38:00,88.2,77.2,29.84,North,0,0.0,0.0,70,0.00,,,0.00,WUHU21623XXSP,2013-09-23 18:38:00,
2013-09-23 13:43:00,88.3,77.4,29.84,North,0,0.0,0.0,70,0.00,,,0.00,WUHU21623XXSP,2013-09-23 18:43:00,
2013-09-23 13:48:00,88.3,76.9,29.83,North,0,0.0,0.0,69,0.00,,,0.00,WUHU21623XXSP,2013-09-23 18:48:00,
2013-09-23 13:53:00,88.0,76.1,29.83,North,0,0.0,0.0,68,0.00,,,0.00,WUHU21623XXSP,2013-09-23 18:53:00,
2013-09-23 13:58:00,87.8,76.8,29.83,North,0,0.0,0.0,69,0.00,,,0.00,WUHU21623XXSP,2013-09-23 18:58:00,
2013-09-23 14:03:00,87.8,76.4,29.83,North,0,0.0,0.0,69,0.00,,,0.00,WUHU21623XXSP,2013-09-23 19:03:00,
2013-09-23 14:08:00,88.0,76.5,29.83,North,0,0.0,0.0,69,0.00,,,0.00,WUHU21623XXSP,2013-09-23 19:08:00,
2013-09-23 14:13:00,88.3,75.5,29.82,North,0,0.0,0.0,66,0.00,,,0.00,WUHU21623XXSP,2013-09-23 19:13:00,
2013-09-23 14:18:00,88.5,76.2,29.82,North,0,0.0,0.0,67,0.00,,,0.00,WUHU21623XXSP,2013-09-23 19:18:00,
2013-09-23 14:23:00,89.1,76.8,29.82,North,0,0.0,0.0,68,0.00,,,0.00,WUHU21623XXSP,2013-09-23 19:23:00,
2013-09-23 14:28:00,89.2,75.5,29.82,North,0,0.0,0.0,64,0.00,,,0.00,WUHU21623XXSP,2013-09-23 19:28:00,
2013-09-23 14:33:00,89.4,75.5,29.82,North,0,0.0,0.0,64,0.00,,,0.00,WUHU21623XXSP,2013-09-23 19:33:00,
2013-09-23 14:38:00,89.4,76.1,29.82,North,0,0.0,0.0,66,0.00,,,0.00,WUHU21623XXSP,2013-09-23 19:38:00,
2013-09-23 14:43:00,89.8,76.4,29.82,North,0,0.0,0.0,65,0.00,,,0.00,WUHU21623XXSP,2013-09-23 19:43:00,
2013-09-23 14:48:00,89.8,76.9,29.82,North,0,0.0,0.0,66,0.00,,,0.00,WUHU21623XXSP,2013-09-23 19:48:00,
2013-09-23 14:53:00,89.8,77.1,29.82,North,0,0.0,0.0,65,0.00,,,0.00,WUHU21623XXSP,2013-09-23 19:53:00,
2013-09-23 14:58:00,90.0,76.6,29.82,North,0,0.0,0.0,65,0.00,,,0.00,WUHU21623XXSP,2013-09-23 19:58:00,
2013-09-23 15:03:00,89.8,76.4,29.82,North,0,0.0,0.0,65,0.00,,,0.00,WUHU21623XXSP,2013-09-23 20:03:00,
2013-09-23 15:08:00,89.8,76.4,29.82,North,0,0.0,0.0,65,0.00,,,0.00,WUHU21623XXSP,2013-09-23 20:08:00,
2013-09-23 15:13:00,90.0,77.1,29.82,North,0,0.0,0.0,66,0.00,,,0.00,WUHU21623XXSP,2013-09-23 20:13:00,
2013-09-23 15:18:00,90.3,77.2,29.82,North,0,0.0,0.0,66,0.00,,,0.00,WUHU21623XXSP,2013-09-23 20:18:00,
2013-09-23 15:23:00,90.5,77.1,29.82,North,0,0.0,0.0,65,0.00,,,0.00,WUHU21623XXSP,2013-09-23 20:23:00,
2013-09-23 15:28:00,91.0,77.1,29.82,North,0,0.0,0.0,64,0.00,,,0.00,WUHU21623XXSP,2013-09-23 20:28:00,
2013-09-23 15:33:00,91.0,76.6,29.82,North,0,0.0,0.0,63,0.00,,,0.00,WUHU21623XXSP,2013-09-23 20:33:00,
2013-09-23 15:38:00,90.7,76.3,29.82,North,0,0.0,0.0,63,0.00,,,0.00,WUHU21623XXSP,2013-09-23 20:38:00,
2013-09-23 15:43:00,90.1,76.3,29.81,North,0,0.0,0.0,64,0.00,,,0.00,WUHU21623XXSP,2013-09-23 20:43:00,
2013-09-23 15:48:00,89.8,76.4,29.82,North,0,0.0,0.0,65,0.00,,,0.00,WUHU21623XXSP,2013-09-23 20:48:00,
2013-09-23 15:53:00,89.2,75.9,29.82,North,0,0.0,0.0,65,0.00,,,0.00,WUHU21623XXSP,2013-09-23 20:53:00,
2013-09-23 15:58:00,88.5,76.0,29.82,North,0,0.0,0.0,66,0.00,,,0.00,WUHU21623XXSP,2013-09-23 20:58:00,
2013-09-23 16:03:00,88.3,75.5,29.82,North,0,0.0,0.0,66,0.00,,,0.00,WUHU21623XXSP,2013-09-23 21:03:00,
2013-09-23 16:08:00,88.2,76.0,29.82,North,0,0.0,0.0,67,0.00,,,0.00,WUHU21623XXSP,2013-09-23 21:08:00,
2013-09-23 16:13:00,88.3,76.4,29.82,North,0,0.0,0.0,68,0.00,,,0.00,WUHU21623XXSP,2013-09-23 21:13:00,
2013-09-23 16:18:00,88.9,76.5,29.82,North,0,0.0,0.0,67,0.00,,,0.00,WUHU21623XXSP,2013-09-23 21:18:00,
2013-09-23 16:23:00,89.2,77.3,29.82,North,0,0.0,0.0,68,0.00,,,0.00,WUHU21623XXSP,2013-09-23 21:23:00,
2013-09-23 16:28:00,90.0,77.4,29.82,North,0,0.0,0.0,66,0.00,,,0.00,WUHU21623XXSP,2013-09-23 21:28:00,
2013-09-23 16:33:00,90.3,76.9,29.82,North,0,0.0,0.0,65,0.00,,,0.00,WUHU21623XXSP,2013-09-23 21:33:00,
2013-09-23 16:38:00,90.9,77.4,29.82,North,0,0.0,0.0,65,0.00,,,0.00,WUHU21623XXSP,2013-09-23 21:38:00,
2013-09-23 16:43:00,91.2,76.8,29.82,North,0,0.0,0.0,63,0.00,,,0.00,WUHU21623XXSP,2013-09-23 21:43:00,
2013-09-23 16:48:00,91.2,76.8,29.82,North,0,0.0,0.0,63,0.00,,,0.00,WUHU21623XXSP,2013-09-23 21:48:00,
2013-09-23 16:53:00,91.2,77.3,29.82,North,0,0.0,0.0,63,0.00,,,0.00,WUHU21623XXSP,2013-09-23 21:53:00,
2013-09-23 16:58:00,91.2,76.8,29.82,North,0,0.0,0.0,63,0.00,,,0.00,WUHU21623XXSP,2013-09-23 21:58:00,
2013-09-23 17:03:00,91.2,76.8,29.82,North,0,0.0,0.0,63,0.00,,,0.00,WUHU21623XXSP,2013-09-23 22:03:00,
2013-09-23 17:08:00,91.2,76.8,29.82,North,0,0.0,0.0,63,0.00,,,0.00,WUHU21623XXSP,2013-09-23 22:08:00,
2013-09-23 17:13:00,91.0,77.1,29.82,North,0,0.0,0.0,64,0.00,,,0.00,WUHU21623XXSP,2013-09-23 22:13:00,
2013-09-23 17:18:00,90.5,77.1,29.82,North,0,0.0,0.0,65,0.00,,,0.00,WUHU21623XXSP,2013-09-23 22:18:00,
2013-09-23 17:23:00,90.0,77.1,29.82,North,0,0.0,0.0,66,0.00,,,0.00,WUHU21623XXSP,2013-09-23 22:23:00,
2013-09-23 17:28:00,89.1,76.7,29.82,North,0,0.0,0.0,67,0.00,,,0.00,WUHU21623XXSP,2013-09-23 22:28:00,
2013-09-23 17:33:00,88.5,76.5,29.83,North,0,0.0,0.0,67,0.00,,,0.00,WUHU21623XXSP,2013-09-23 22:33:00,
2013-09-23 17:38:00,87.6,75.7,29.83,North,0,0.0,0.0,68,0.00,,,0.00,WUHU21623XXSP,2013-09-23 22:38:00,
2013-09-23 17:43:00,87.3,75.9,29.83,North,0,0.0,0.0,69,0.00,,,0.00,WUHU21623XXSP,2013-09-23 22:43:00,
2013-09-23 17:48:00,86.7,75.4,29.83,North,0,0.0,0.0,69,0.00,,,0.00,WUHU21623XXSP,2013-09-23 22:48:00,
2013-09-23 17:53:00,86.4,75.5,29.83,North,0,0.0,0.0,70,0.00,,,0.00,WUHU21623XXSP,2013-09-23 22:53:00,
2013-09-23 17:58:00,86.2,75.8,29.83,North,0,0.0,0.0,71,0.00,,,0.00,WUHU21623XXSP,2013-09-23 22:58:00,
2013-09-23 18:03:00,85.6,75.2,29.84,North,0,0.0,0.0,71,0.00,,,0.00,WUHU21623XXSP,2013-09-23 23:03:00,
2013-09-23 18:08:00,85.3,75.3,29.83,North,0,0.0,0.0,72,0.00,,,0.00,WUHU21623XXSP,2013-09-23 23:08:00,
2013-09-23 18:13:00,85.1,75.1,29.83,North,0,0.0,0.0,72,0.00,,,0.00,WUHU21623XXSP,2013-09-23 23:13:00,
2013-09-23 18:18:00,84.9,74.9,29.83,North,0,0.0,0.0,73,0.00,,,0.00,WUHU21623XXSP,2013-09-23 23:18:00,
2013-09-23 18:23:00,84.6,75.1,29.83,North,0,0.0,0.0,73,0.00,,,0.00,WUHU21623XXSP,2013-09-23 23:23:00,
2013-09-23 18:28:00,84.2,74.6,29.84,North,0,0.0,0.0,73,0.00,,,0.00,WUHU21623XXSP,2013-09-23 23:28:00,
2013-09-23 18:33:00,84.0,74.8,29.83,North,0,0.0,0.0,74,0.00,,,0.00,WUHU21623XXSP,2013-09-23 23:33:00,
2013-09-23 18:38:00,83.8,74.6,29.84,North,0,0.0,0.0,74,0.00,,,0.00,WUHU21623XXSP,2013-09-23 23:38:00,
2013-09-23 18:43:00,83.5,74.7,29.84,North,0,0.0,0.0,75,0.00,,,0.00,WUHU21623XXSP,2013-09-23 23:43:00,
2013-09-23 18:48:00,83.1,74.8,29.84,North,0,0.0,0.0,76,0.00,,,0.00,WUHU21623XXSP,2013-09-23 23:48:00,
2013-09-23 18:53:00,82.9,74.6,29.84,North,0,0.0,0.0,76,0.00,,,0.00,WUHU21623XXSP,2013-09-23 23:53:00,
2013-09-23 18:58:00,82.6,74.7,29.84,North,0,0.0,0.0,77,0.00,,,0.00,WUHU21623XXSP,2013-09-23 23:58:00,
2013-09-23 19:03:00,82.4,74.5,29.84,North,0,0.0,0.0,77,0.00,,,0.00,WUHU21623XXSP,2013-09-24 00:03:00,
2013-09-23 19:08:00,82.2,74.3,29.84,North,0,0.0,0.0,78,0.00,,,0.00,WUHU21623XXSP,2013-09-24 00:08:00,
2013-09-23 19:13:00,82.0,74.7,29.84,North,0,0.0,0.0,78,0.00,,,0.00,WUHU21623XXSP,2013-09-24 00:13:00,
2013-09-23 19:18:00,81.7,74.2,29.85,North,0,0.0,0.0,78,0.00,,,0.00,WUHU21623XXSP,2013-09-24 00:18:00,
2013-09-23 19:23:00,81.5,74.6,29.85,North,0,0.0,0.0,79,0.00,,,0.00,WUHU21623XXSP,2013-09-24 00:23:00,
2013-09-23 19:28:00,81.3,74.2,29.85,North,0,0.0,0.0,79,0.00,,,0.00,WUHU21623XXSP,2013-09-24 00:28:00,
2013-09-23 19:33:00,81.3,74.2,29.85,North,0,0.0,0.0,79,0.00,,,0.00,WUHU21623XXSP,2013-09-24 00:33:00,
2013-09-23 19:38:00,81.0,74.3,29.85,North,0,0.0,0.0,80,0.00,,,0.00,WUHU21623XXSP,2013-09-24 00:38:00,
2013-09-23 19:43:00,80.8,74.1,29.85,North,0,0.0,0.0,80,0.00,,,0.00,WUHU21623XXSP,2013-09-24 00:43:00,
2013-09-23 19:48:00,80.6,73.9,29.85,North,0,0.0,0.0,80,0.00,,,0.00,WUHU21623XXSP,2013-09-24 00:48:00,
2013-09-23 19:53:00,80.4,74.1,29.85,North,0,0.0,0.0,81,0.00,,,0.00,WUHU21623XXSP,2013-09-24 00:53:00,
2013-09-23 19:58:00,80.2,74.1,29.85,North,0,0.0,0.0,81,0.00,,,0.00,WUHU21623XXSP,2013-09-24 00:58:00,
2013-09-23 20:03:00,80.2,73.9,29.85,North,0,0.0,0.0,81,0.00,,,0.00,WUHU21623XXSP,2013-09-24 01:03:00,
2013-09-23 20:08:00,79.9,73.9,29.85,North,0,0.0,0.0,82,0.00,,,0.00,WUHU21623XXSP,2013-09-24 01:08:00,
2013-09-23 20:13:00,79.7,73.7,29.85,North,0,0.0,0.0,82,0.00,,,0.00,WUHU21623XXSP,2013-09-24 01:13:00,
2013-09-23 20:18:00,79.5,73.7,29.85,North,0,0.0,0.0,82,0.00,,,0.00,WUHU21623XXSP,2013-09-24 01:18:00,
2013-09-23 20:23:00,79.5,73.6,29.86,North,0,0.0,0.0,82,0.00,,,0.00,WUHU21623XXSP,2013-09-24 01:23:00,
2013-09-23 20:28:00,79.3,73.7,29.86,North,0,0.0,0.0,83,0.00,,,0.00,WUHU21623XXSP,2013-09-24 01:28:00,
2013-09-23 20:33:00,79.2,73.6,29.86,North,0,0.0,0.0,83,0.00,,,0.00,WUHU21623XXSP,2013-09-24 01:33:00,
2013-09-23 20:38:00,79.0,73.7,29.86,North,0,0.0,0.0,84,0.00,,,0.00,WUHU21623XXSP,2013-09-24 01:38:00,
2013-09-23 20:43:00,78.8,73.6,29.86,North,0,0.0,0.0,84,0.00,,,0.00,WUHU21623XXSP,2013-09-24 01:43:00,
2013-09-23 20:48:00,78.6,73.4,29.87,North,0,0.0,0.0,84,0.00,,,0.00,WUHU21623XXSP,2013-09-24 01:48:00,
2013-09-23 20:53:00,78.4,73.2,29.87,North,0,0.0,0.0,84,0.00,,,0.00,WUHU21623XXSP,2013-09-24 01:53:00,
2013-09-23 20:58:00,78.4,73.6,29.87,North,0,0.0,0.0,86,0.00,,,0.00,WUHU21623XXSP,2013-09-24 01:58:00,
2013-09-23 21:03:00,78.4,74.3,29.87,North,0,0.0,0.0,87,0.00,,,0.00,WUHU21623XXSP,2013-09-24 02:03:00,
2013-09-23 21:08:00,78.4,74.3,29.87,North,0,0.0,0.0,87,0.00,,,0.00,WUHU21623XXSP,2013-09-24 02:08:00,
2013-09-23 21:13:00,78.4,74.3,29.87,North,0,0.0,0.0,87,0.00,,,0.00,WUHU21623XXSP,2013-09-24 02:13:00,
2013-09-23 21:18:00,78.4,74.3,29.88,North,0,0.0,0.0,87,0.00,,,0.00,WUHU21623XXSP,2013-09-24 02:18:00,
2013-09-23 21:23:00,78.4,74.3,29.88,North,0,0.0,0.0,88,0.00,,,0.00,WUHU21623XXSP,2013-09-24 02:23:00,
2013-09-23 21:28:00,78.4,74.7,29.88,North,0,0.0,0.0,88,0.00,,,0.00,WUHU21623XXSP,2013-09-24 02:28:00,
2013-09-23 21:33:00,78.4,74.3,29.88,North,0,0.0,0.0,87,0.00,,,0.00,WUHU21623XXSP,2013-09-24 02:33:00,
2013-09-23 21:38:00,78.1,74.1,29.89,North,0,0.0,0.0,87,0.00,,,0.00,WUHU21623XXSP,2013-09-24 02:38:00,
2013-09-23 21:43:00,78.1,73.9,29.89,North,0,0.0,0.0,87,0.00,,,0.00,WUHU21623XXSP,2013-09-24 02:43:00,
2013-09-23 21:48:00,77.9,73.8,29.89,North,0,0.0,0.0,87,0.00,,,0.00,WUHU21623XXSP,2013-09-24 02:48:00,
2013-09-23 21:53:00,77.9,73.8,29.89,North,0,0.0,0.0,87,0.00,,,0.00,WUHU21623XXSP,2013-09-24 02:53:00,
2013-09-23 21:58:00,77.5,73.6,29.89,North,0,0.0,0.0,87,0.00,,,0.00,WUHU21623XXSP,2013-09-24 02:58:00,
2013-09-23 22:03:00,77.5,73.4,29.89,North,0,0.0,0.0,87,0.00,,,0.00,WUHU21623XXSP,2013-09-24 03:03:00,
2013-09-23 22:08:00,77.4,73.2,29.89,North,0,0.0,0.0,87,0.00,,,0.00,WUHU21623XXSP,2013-09-24 03:08:00,
2013-09-23 22:13:00,77.4,73.2,29.89,North,0,0.0,0.0,87,0.00,,,0.00,WUHU21623XXSP,2013-09-24 03:13:00,
2013-09-23 22:18:00,77.2,73.0,29.89,North,0,0.0,0.0,87,0.00,,,0.00,WUHU21623XXSP,2013-09-24 03:18:00,
2013-09-23 22:23:00,77.2,73.0,29.89,North,0,0.0,0.0,87,0.00,,,0.00,WUHU21623XXSP,2013-09-24 03:23:00,
2013-09-23 22:28:00,77.0,72.9,29.89,North,0,0.0,0.0,87,0.00,,,0.00,WUHU21623XXSP,2013-09-24 03:28:00,
2013-09-23 22:33:00,76.8,73.0,29.89,North,0,0.0,0.0,88,0.00,,,0.00,WUHU21623XXSP,2013-09-24 03:33:00,
2013-09-23 22:38:00,76.8,73.0,29.89,North,0,0.0,0.0,88,0.00,,,0.00,WUHU21623XXSP,2013-09-24 03:38:00,
2013-09-23 22:43:00,76.8,73.0,29.89,North,0,0.0,0.0,88,0.00,,,0.00,WUHU21623XXSP,2013-09-24 03:43:00,
2013-09-23 22:48:00,76.8,73.4,29.89,North,0,0.0,0.0,89,0.00,,,0.00,WUHU21623XXSP,2013-09-24 03:48:00,
2013-09-23 22:53:00,76.6,73.2,29.89,North,0,0.0,0.0,89,0.00,,,0.00,WUHU21623XXSP,2013-09-24 03:53:00,
2013-09-23 22:58:00,76.6,73.2,29.88,North,0,0.0,0.0,89,0.00,,,0.00,WUHU21623XXSP,2013-09-24 03:58:00,
2013-09-23 23:01:00,76.6,73.2,29.89,North,0,0.0,0.0,89,0.00,,,0.00,WUHU21623XXSP,2013-09-24 04:01:00,
2013-09-23 23:06:00,76.3,73.4,29.89,North,0,0.0,0.0,90,0.00,,,0.00,WUHU21623XXSP,2013-09-24 04:06:00,
2013-09-23 23:11:00,76.3,73.2,29.89,North,0,0.0,0.0,90,0.00,,,0.00,WUHU21623XXSP,2013-09-24 04:11:00,
2013-09-23 23:16:00,76.3,73.2,29.88,North,0,0.0,0.0,90,0.00,,,0.00,WUHU21623XXSP,2013-09-24 04:16:00,
2013-09-23 23:21:00,76.3,73.2,29.88,North,0,0.0,0.0,90,0.00,,,0.00,WUHU21623XXSP,2013-09-24 04:21:00,
2013-09-23 23:26:00,76.1,73.0,29.89,North,0,0.0,0.0,90,0.00,,,0.00,WUHU21623XXSP,2013-09-24 04:26:00,
2013-09-23 23:31:00,75.9,73.0,29.89,North,0,0.0,0.0,90,0.00,,,0.00,WUHU21623XXSP,2013-09-24 04:31:00,
2013-09-23 23:36:00,75.9,72.9,29.88,North,0,0.0,0.0,90,0.00,,,0.00,WUHU21623XXSP,2013-09-24 04:36:00,
2013-09-23 23:41:00,75.9,72.9,29.88,North,0,0.0,0.0,91,0.00,,,0.00,WUHU21623XXSP,2013-09-24 04:41:00,
2013-09-23 23:46:00,75.7,73.2,29.88,North,0,0.0,0.0,91,0.00,,,0.00,WUHU21623XXSP,2013-09-24 04:46:00,
2013-09-23 23:51:00,75.7,73.0,29.88,North,0,0.0,0.0,91,0.00,,,0.00,WUHU21623XXSP,2013-09-24 04:51:00,
2013-09-23 23:56:00,75.7,73.0,29.88,North,0,0.0,0.0,91,0.00,,,0.00,WUHU21623XXSP,2013-09-24 04:56:00,